Snow/Ice From: 17-12-2017 10:00 Until: 18-12-2017 06:00 warning for: Snow/Ice Level: Yellow info button

Although rather usual in this region, locally or potentially dangerous phenomena are expected. (such as local winds, summer thunderstorms, rising streams or high waves) Be aware and pay attention to the latest weather updates, especially if you carry out activities exposed to weather or close to a stream or shoreline. 


Meteo18 Weather Cam more information Meteo18 Weather Cam


Thunder radar more information blitzortung!


warning for Snow/Ice more information rain snow radar


Visit our other weather sites:

Template documentation
and downloads

And another site



Weather Underground History page Text

Daily Summary for March 31, 2017 Units:  Metric    English   Both
« Previous Day
Next Day »
Daily Weekly Monthly Yearly Custom
  High: Low: Average:
Temperature: 16.9 °C 9.0 °C 12.8 °C
Dew Point: 11.3 °C 3.1 °C 8 °C
Humidity: 95 % 48 % 73 %
Wind Speed: 25.7 km/h 0.0 km/h 4.3 km/h
Wind Gust: 35.4 km/h - -
Wind:- - SSW
Pressure: 1018.8 hPa 1015.5 hPa -
Precipitation: 4.1 mm    
Historical Graphs
 
 
Tabular Data for March 31, 2017
Time Temperature Dew Point Pressure Wind Wind Speed Wind Gust Humidity Rainfall Rate (Hourly)
00:02 13.9 °C 8.1 °C 1018.8 hPa Calm     68 % 0.0 mm
00:07 13.8 °C 8.0 °C 1018.8 hPa Calm     68 % 0.0 mm
00:12 13.6 °C 8.0 °C 1018.8 hPa Calm     69 % 0.0 mm
00:17 13.6 °C 8.0 °C 1018.8 hPa Calm     69 % 0.0 mm
00:22 13.5 °C 8.1 °C 1018.8 hPa Calm     70 % 0.0 mm
00:32 13.7 °C 8.3 °C 1018.8 hPa Calm     70 % 0.0 mm
00:37 14.2 °C 8.4 °C 1018.8 hPa Calm     68 % 0.0 mm
00:42 14.3 °C 8.3 °C 1018.8 hPa Calm     67 % 0.0 mm
00:52 14.2 °C 8.2 °C 1018.8 hPa Calm     67 % 0.0 mm
00:57 13.9 °C 8.1 °C 1018.8 hPa Calm     68 % 0.0 mm
01:02 13.6 °C 8.0 °C 1018.8 hPa Calm     69 % 0.0 mm
01:12 13.2 °C 7.8 °C 1018.8 hPa Calm     70 % 0.0 mm
01:17 12.8 °C 7.7 °C 1018.8 hPa Calm     71 % 0.0 mm
01:22 12.6 °C 7.7 °C 1018.8 hPa Calm     72 % 0.0 mm
01:27 12.4 °C 7.7 °C 1018.8 hPa Calm     73 % 0.0 mm
01:32 12.4 °C 7.9 °C 1018.8 hPa Calm     74 % 0.0 mm
01:42 12.6 °C 8.1 °C 1018.5 hPa West 1.6 km/h   74 % 0.0 mm
01:47 12.9 °C 8.6 °C 1018.5 hPa Calm   3.2 km/h 75 % 0.0 mm
01:52 13.3 °C 8.6 °C 1018.5 hPa WSW 1.6 km/h 3.2 km/h 73 % 0.0 mm
02:02 13.6 °C 8.6 °C 1018.5 hPa Calm   3.2 km/h 72 % 0.0 mm
02:12 13.3 °C 8.4 °C 1018.5 hPa Calm   1.6 km/h 72 % 0.0 mm
02:17 13.0 °C 8.1 °C 1018.8 hPa Calm   1.6 km/h 72 % 0.0 mm
02:22 12.5 °C 8.0 °C 1018.8 hPa Calm   1.6 km/h 74 % 0.0 mm
02:32 12.6 °C 8.3 °C 1018.5 hPa ENE 1.6 km/h 3.2 km/h 75 % 0.0 mm
02:42 12.5 °C 8.0 °C 1018.5 hPa Calm   3.2 km/h 74 % 0.0 mm
02:47 12.6 °C 7.9 °C 1018.5 hPa Calm   1.6 km/h 73 % 0.0 mm
02:52 12.6 °C 7.9 °C 1018.5 hPa North 3.2 km/h 3.2 km/h 73 % 0.0 mm
02:57 12.2 °C 7.9 °C 1018.5 hPa Calm   3.2 km/h 75 % 0.0 mm
03:07 12.4 °C 7.5 °C 1018.5 hPa Calm   3.2 km/h 72 % 0.0 mm
03:12 12.3 °C 7.8 °C 1018.2 hPa Calm   3.2 km/h 74 % 0.0 mm
03:17 12.0 °C 7.5 °C 1018.2 hPa Calm   1.6 km/h 74 % 0.0 mm
03:22 11.8 °C 7.3 °C 1018.5 hPa Calm   1.6 km/h 74 % 0.0 mm
03:32 11.4 °C 7.3 °C 1018.2 hPa Calm     76 % 0.0 mm
03:42 11.1 °C 7.4 °C 1018.2 hPa Calm     78 % 0.0 mm
03:47 11.0 °C 7.3 °C 1017.8 hPa Calm     78 % 0.0 mm
03:52 11.3 °C 7.0 °C 1018.2 hPa Calm   1.6 km/h 75 % 0.0 mm
03:57 11.3 °C 6.8 °C 1017.8 hPa Calm   1.6 km/h 74 % 0.0 mm
04:02 11.1 °C 6.8 °C 1017.8 hPa Calm   1.6 km/h 75 % 0.0 mm
04:12 10.7 °C 6.8 °C 1017.8 hPa Calm   1.6 km/h 77 % 0.0 mm
04:17 10.6 °C 6.7 °C 1017.8 hPa Calm     77 % 0.0 mm
04:22 10.5 °C 6.6 °C 1017.8 hPa Calm     77 % 0.0 mm
04:27 10.5 °C 6.6 °C 1017.8 hPa NE 1.6 km/h   77 % 0.0 mm
04:32 10.4 °C 6.5 °C 1017.5 hPa Calm     77 % 0.0 mm
04:42 10.2 °C 6.7 °C 1017.5 hPa Calm   1.6 km/h 79 % 0.0 mm
04:47 10.2 °C 6.7 °C 1017.5 hPa Calm   1.6 km/h 79 % 0.0 mm
04:52 10.3 °C 6.6 °C 1017.5 hPa Calm   1.6 km/h 78 % 0.0 mm
04:57 10.4 °C 6.7 °C 1017.5 hPa Calm   1.6 km/h 78 % 0.0 mm
05:02 10.2 °C 6.2 °C 1017.5 hPa Calm     76 % 0.0 mm
05:12 10.1 °C 6.4 °C 1017.5 hPa Calm     78 % 0.0 mm
05:22 10.1 °C 5.5 °C 1017.2 hPa Calm     73 % 0.0 mm
05:32 9.6 °C 5.6 °C 1017.2 hPa Calm     76 % 0.0 mm
05:37 9.6 °C 5.4 °C 1017.2 hPa Calm     75 % 0.0 mm
05:42 9.8 °C 5.4 °C 1017.2 hPa Calm     74 % 0.0 mm
05:52 9.8 °C 5.6 °C 1017.2 hPa Calm     75 % 0.0 mm
06:02 9.3 °C 5.1 °C 1017.2 hPa Calm     75 % 0.0 mm
06:12 9.4 °C 4.6 °C 1017.2 hPa Calm     72 % 0.0 mm
06:17 9.4 °C 4.4 °C 1017.2 hPa Calm     71 % 0.0 mm
06:22 9.5 °C 4.3 °C 1017.2 hPa Calm     70 % 0.0 mm
06:32 9.3 °C 4.1 °C 1017.2 hPa Calm     70 % 0.0 mm
06:37 9.2 °C 3.8 °C 1016.8 hPa Calm     69 % 0.0 mm
06:42 9.2 °C 3.6 °C 1017.2 hPa Calm     68 % 0.0 mm
06:47 9.4 °C 3.8 °C 1017.2 hPa Calm     68 % 0.0 mm
06:52 9.4 °C 3.6 °C 1017.2 hPa Calm     67 % 0.0 mm
07:02 9.8 °C 3.1 °C 1017.2 hPa Calm     63 % 0.0 mm
07:07 9.6 °C 3.3 °C 1017.2 hPa Calm     65 % 0.0 mm
07:12 9.6 °C 3.3 °C 1017.2 hPa Calm     65 % 0.0 mm
07:17 9.7 °C 3.2 °C 1017.2 hPa Calm     64 % 0.0 mm
07:22 9.6 °C 3.1 °C 1017.2 hPa Calm     64 % 0.0 mm
07:27 9.4 °C 3.2 °C 1017.2 hPa Calm     65 % 0.0 mm
07:32 9.3 °C 3.1 °C 1017.2 hPa Calm     65 % 0.0 mm
07:42 9.1 °C 3.3 °C 1017.5 hPa NW 3.2 km/h   67 % 0.0 mm
07:47 9.3 °C 3.1 °C 1017.2 hPa NW 1.6 km/h   65 % 0.0 mm
07:57 9.6 °C 3.1 °C 1017.2 hPa Calm   3.2 km/h 64 % 0.0 mm
08:02 9.3 °C 3.1 °C 1017.5 hPa Calm   1.6 km/h 65 % 0.0 mm
08:12 9.1 °C 3.3 °C 1017.5 hPa Calm   1.6 km/h 67 % 0.0 mm
08:17 9.0 °C 3.4 °C 1017.5 hPa South 1.6 km/h 1.6 km/h 68 % 0.0 mm
08:22 9.1 °C 3.5 °C 1017.5 hPa South 1.6 km/h 3.2 km/h 68 % 0.0 mm
08:32 9.4 °C 3.4 °C 1017.5 hPa Calm   3.2 km/h 66 % 0.0 mm
08:37 9.4 °C 3.4 °C 1017.5 hPa Calm   3.2 km/h 66 % 0.0 mm
08:42 9.6 °C 3.8 °C 1017.5 hPa Calm   1.6 km/h 67 % 0.0 mm
08:47 9.6 °C 3.8 °C 1017.8 hPa Calm   1.6 km/h 67 % 0.0 mm
08:52 9.7 °C 3.9 °C 1017.8 hPa Calm   3.2 km/h 67 % 0.0 mm
09:02 9.9 °C 4.5 °C 1017.8 hPa Calm   3.2 km/h 69 % 0.0 mm
09:12 10.4 °C 4.7 °C 1017.8 hPa Calm   4.8 km/h 68 % 0.0 mm
09:17 10.6 °C 4.9 °C 1017.8 hPa South 1.6 km/h 4.8 km/h 68 % 0.0 mm
09:22 10.7 °C 5.0 °C 1017.8 hPa Calm   4.8 km/h 68 % 0.0 mm
09:32 11.2 °C 5.3 °C 1017.8 hPa South 3.2 km/h 4.8 km/h 67 % 0.0 mm
09:37 11.4 °C 5.3 °C 1017.8 hPa SSW 4.8 km/h 4.8 km/h 66 % 0.0 mm
09:42 11.7 °C 5.6 °C 1017.8 hPa SSW 3.2 km/h 8.0 km/h 66 % 0.0 mm
09:47 11.9 °C 5.7 °C 1017.8 hPa South 6.4 km/h 8.0 km/h 66 % 0.0 mm
09:52 12.3 °C 5.5 °C 1017.8 hPa South 4.8 km/h 9.7 km/h 63 % 0.0 mm
10:02 12.8 °C 5.7 °C 1018.2 hPa South 6.4 km/h 11.3 km/h 62 % 0.0 mm
10:12 13.1 °C 6.0 °C 1018.2 hPa SSW 1.6 km/h 11.3 km/h 62 % 0.0 mm
10:22 13.6 °C 5.7 °C 1018.2 hPa SSW 3.2 km/h 11.3 km/h 59 % 0.0 mm
10:32 14.1 °C 6.5 °C 1018.5 hPa SE 4.8 km/h 11.3 km/h 60 % 0.0 mm
10:42 14.6 °C 6.4 °C 1018.5 hPa SE 6.4 km/h 9.7 km/h 58 % 0.0 mm
10:47 14.8 °C 6.6 °C 1018.5 hPa SW 9.7 km/h 9.7 km/h 58 % 0.0 mm
10:52 15.0 °C 7.1 °C 1018.5 hPa SE 4.8 km/h 12.9 km/h 59 % 0.0 mm
10:57 15.5 °C 6.8 °C 1018.5 hPa SSW 8.0 km/h 12.9 km/h 56 % 0.0 mm
11:02 15.8 °C 6.2 °C 1018.5 hPa SSW 11.3 km/h 11.3 km/h 53 % 0.0 mm
11:07 16.2 °C 6.1 °C 1018.5 hPa SW 12.9 km/h 12.9 km/h 51 % 0.0 mm
11:12 16.7 °C 6.2 °C 1018.5 hPa WSW 19.3 km/h 27.4 km/h 50 % 0.0 mm
11:17 16.9 °C 5.8 °C 1018.5 hPa WSW 8.0 km/h 27.4 km/h 48 % 0.0 mm
11:22 16.7 °C 5.6 °C 1018.8 hPa WSW 11.3 km/h 27.4 km/h 48 % 0.0 mm
11:27 16.5 °C 6.3 °C 1018.8 hPa SW 20.9 km/h 27.4 km/h 51 % 0.0 mm
11:37 16.3 °C 6.4 °C 1018.8 hPa SW 16.1 km/h 27.4 km/h 52 % 0.0 mm
11:42 16.2 °C 6.3 °C 1018.8 hPa SW 25.7 km/h 30.6 km/h 52 % 0.0 mm
11:47 16.0 °C 6.7 °C 1018.8 hPa SW 19.3 km/h 30.6 km/h 54 % 0.0 mm
11:52 15.8 °C 6.5 °C 1018.8 hPa WSW 11.3 km/h 30.6 km/h 54 % 0.0 mm
12:02 15.9 °C 6.9 °C 1018.8 hPa WSW 11.3 km/h 25.7 km/h 55 % 0.0 mm
12:12 16.3 °C 7.2 °C 1018.8 hPa SW 17.7 km/h 27.4 km/h 55 % 0.0 mm
12:17 16.4 °C 7.6 °C 1018.8 hPa WSW 20.9 km/h 27.4 km/h 56 % 0.0 mm
12:22 16.4 °C 7.9 °C 1018.8 hPa South 6.4 km/h 27.4 km/h 57 % 0.0 mm
12:32 16.3 °C 8.5 °C 1018.8 hPa WSW 9.7 km/h 35.4 km/h 60 % 0.0 mm
12:42 15.8 °C 8.3 °C 1018.8 hPa SSW 9.7 km/h 29.0 km/h 61 % 0.0 mm
12:47 15.9 °C 8.4 °C 1018.8 hPa SW 9.7 km/h 29.0 km/h 61 % 0.0 mm
12:52 15.9 °C 8.6 °C 1018.8 hPa WSW 11.3 km/h 29.0 km/h 62 % 0.0 mm
13:02 15.6 °C 8.6 °C 1018.8 hPa West 9.7 km/h 24.1 km/h 63 % 0.0 mm
13:07 15.4 °C 8.9 °C 1018.5 hPa West 4.8 km/h 24.1 km/h 65 % 0.0 mm
13:12 15.4 °C 8.9 °C 1018.8 hPa SW 16.1 km/h 19.3 km/h 65 % 0.0 mm
13:22 15.3 °C 8.8 °C 1018.8 hPa WSW 11.3 km/h 19.3 km/h 65 % 0.0 mm
13:32 14.8 °C 9.4 °C 1018.8 hPa SW 12.9 km/h 20.9 km/h 70 % 0.0 mm
13:37 14.7 °C 9.5 °C 1018.8 hPa SW 16.1 km/h 20.9 km/h 71 % 0.0 mm
13:42 14.8 °C 9.4 °C 1018.8 hPa WSW 6.4 km/h 19.3 km/h 70 % 0.0 mm
13:52 15.2 °C 10.0 °C 1018.5 hPa SW 8.0 km/h 16.1 km/h 71 % 0.0 mm
14:02 15.7 °C 9.4 °C 1018.5 hPa SSW 12.9 km/h 17.7 km/h 66 % 0.0 mm
14:07 15.7 °C 9.6 °C 1018.5 hPa SW 11.3 km/h 17.7 km/h 67 % 0.0 mm
14:12 15.8 °C 9.7 °C 1018.8 hPa SSW 16.1 km/h 20.9 km/h 67 % 0.0 mm
14:17 15.9 °C 9.6 °C 1018.8 hPa SSW 9.7 km/h 22.5 km/h 66 % 0.0 mm
14:27 16.0 °C 9.7 °C 1018.8 hPa SSW 9.7 km/h 24.1 km/h 66 % 0.0 mm
14:32 16.1 °C 9.5 °C 1018.8 hPa SW 14.5 km/h 24.1 km/h 65 % 0.0 mm
14:37 15.9 °C 9.3 °C 1018.5 hPa SSW 8.0 km/h 24.1 km/h 65 % 0.0 mm
14:42 15.9 °C 9.3 °C 1018.5 hPa SSW 9.7 km/h 24.1 km/h 65 % 0.0 mm
14:47 15.9 °C 9.1 °C 1018.5 hPa SW 8.0 km/h 22.5 km/h 64 % 0.0 mm
14:52 15.9 °C 9.3 °C 1018.5 hPa West 8.0 km/h 22.5 km/h 65 % 0.0 mm
14:57 15.9 °C 9.3 °C 1018.5 hPa WSW 8.0 km/h 20.9 km/h 65 % 0.0 mm
15:02 16.0 °C 9.7 °C 1018.5 hPa WSW 11.3 km/h 20.9 km/h 66 % 0.0 mm
15:12 15.0 °C 9.8 °C 1018.5 hPa West 12.9 km/h 25.7 km/h 71 % 0.0 mm
15:17 14.6 °C 10.0 °C 1018.5 hPa West 17.7 km/h 25.7 km/h 74 % 0.0 mm
15:22 14.4 °C 10.2 °C 1018.5 hPa WSW 4.8 km/h 25.7 km/h 76 % 0.0 mm
15:32 14.5 °C 9.9 °C 1018.5 hPa West 16.1 km/h 25.7 km/h 74 % 0.0 mm
15:42 14.6 °C 9.8 °C 1018.2 hPa SW 6.4 km/h 19.3 km/h 73 % 0.0 mm
15:47 14.7 °C 9.7 °C 1018.2 hPa WSW 9.7 km/h 22.5 km/h 72 % 0.0 mm
15:52 14.9 °C 10.1 °C 1017.8 hPa SW 12.9 km/h 22.5 km/h 73 % 0.0 mm
16:02 14.9 °C 9.7 °C 1017.8 hPa SW 19.3 km/h 19.3 km/h 71 % 0.0 mm
16:12 15.0 °C 10.4 °C 1017.8 hPa SW 14.5 km/h 20.9 km/h 74 % 0.0 mm
16:17 14.9 °C 9.7 °C 1017.8 hPa SW 14.5 km/h 20.9 km/h 71 % 0.0 mm
16:22 14.9 °C 9.5 °C 1017.8 hPa SW 16.1 km/h 20.9 km/h 70 % 0.0 mm
16:32 14.9 °C 9.7 °C 1017.8 hPa South 11.3 km/h 22.5 km/h 71 % 0.0 mm
16:37 15.0 °C 10.0 °C 1017.8 hPa SW 12.9 km/h 22.5 km/h 72 % 0.0 mm
16:42 15.0 °C 9.8 °C 1017.5 hPa SSW 8.0 km/h 22.5 km/h 71 % 0.0 mm
16:47 15.1 °C 10.1 °C 1017.5 hPa SSW 11.3 km/h 20.9 km/h 72 % 0.0 mm
16:52 15.1 °C 10.1 °C 1017.5 hPa SW 8.0 km/h 20.9 km/h 72 % 0.0 mm
16:57 15.1 °C 9.9 °C 1017.5 hPa SSW 19.3 km/h 20.9 km/h 71 % 0.0 mm
17:02 15.0 °C 10.0 °C 1017.5 hPa SSW 9.7 km/h 20.9 km/h 72 % 0.0 mm
17:12 14.9 °C 9.9 °C 1017.5 hPa SW 8.0 km/h 20.9 km/h 72 % 0.0 mm
17:17 14.9 °C 9.7 °C 1017.2 hPa SSW 14.5 km/h 20.9 km/h 71 % 0.0 mm
17:22 14.8 °C 9.8 °C 1017.5 hPa SSW 9.7 km/h 20.9 km/h 72 % 0.0 mm
17:32 14.7 °C 10.1 °C 1017.5 hPa SSW 4.8 km/h 19.3 km/h 74 % 0.0 mm
17:42 14.4 °C 10.2 °C 1017.5 hPa SW 6.4 km/h 17.7 km/h 76 % 0.0 mm
17:52 14.1 °C 10.7 °C 1017.2 hPa SW 6.4 km/h 17.7 km/h 80 % 0.0 mm
17:57 13.9 °C 10.9 °C 1017.2 hPa SW 8.0 km/h 17.7 km/h 82 % 0.0 mm
18:02 13.7 °C 10.9 °C 1017.2 hPa SW 3.2 km/h 16.1 km/h 83 % 0.3 mm
18:12 13.5 °C 10.7 °C 1017.2 hPa SW 6.4 km/h 12.9 km/h 83 % 0.3 mm
18:17 13.4 °C 10.6 °C 1017.2 hPa SW 4.8 km/h 11.3 km/h 83 % 0.3 mm
18:22 13.4 °C 10.8 °C 1017.2 hPa SW 9.7 km/h 11.3 km/h 84 % 0.3 mm
18:32 13.4 °C 10.9 °C 1016.8 hPa South 3.2 km/h 11.3 km/h 85 % 0.3 mm
18:42 13.4 °C 11.3 °C 1016.8 hPa SW 6.4 km/h 11.3 km/h 87 % 0.3 mm
18:52 13.4 °C 11.3 °C 1016.8 hPa SSW 4.8 km/h 9.7 km/h 87 % 0.3 mm
19:02 13.3 °C 11.0 °C 1016.5 hPa South 1.6 km/h 9.7 km/h 86 % 0.3 mm
19:12 13.2 °C 10.9 °C 1016.5 hPa Calm   6.4 km/h 86 % 0.3 mm
19:17 13.2 °C 10.9 °C 1016.5 hPa Calm   4.8 km/h 86 % 0.3 mm
19:22 13.2 °C 10.9 °C 1016.5 hPa Calm   3.2 km/h 86 % 0.3 mm
19:32 13.1 °C 11.0 °C 1016.5 hPa Calm   1.6 km/h 87 % 0.3 mm
19:42 13.0 °C 10.7 °C 1016.1 hPa Calm   1.6 km/h 86 % 0.3 mm
19:52 13.0 °C 10.9 °C 1016.1 hPa Calm     87 % 0.3 mm
19:57 12.9 °C 10.6 °C 1016.1 hPa Calm     86 % 0.0 mm
20:02 12.9 °C 10.6 °C 1016.1 hPa Calm     86 % 0.0 mm
20:12 12.8 °C 10.5 °C 1016.1 hPa Calm     86 % 0.0 mm
20:17 12.7 °C 10.6 °C 1016.1 hPa Calm     87 % 0.0 mm
20:22 12.7 °C 10.6 °C 1016.1 hPa Calm   1.6 km/h 87 % 0.0 mm
20:32 12.6 °C 10.5 °C 1016.1 hPa Calm   1.6 km/h 87 % 0.0 mm
20:42 12.6 °C 10.5 °C 1016.1 hPa SW 1.6 km/h   87 % 0.0 mm
20:47 12.5 °C 10.6 °C 1016.1 hPa Calm   4.8 km/h 88 % 0.0 mm
20:52 12.5 °C 10.6 °C 1016.1 hPa Calm   4.8 km/h 88 % 0.0 mm
20:57 12.4 °C 10.5 °C 1016.1 hPa SSW 1.6 km/h 4.8 km/h 88 % 0.0 mm
21:02 12.3 °C 10.5 °C 1016.1 hPa Calm   4.8 km/h 89 % 0.0 mm
21:12 12.2 °C 10.6 °C 1016.1 hPa Calm   3.2 km/h 90 % 0.0 mm
21:17 12.1 °C 10.5 °C 1016.1 hPa Calm   1.6 km/h 90 % 0.0 mm
21:22 12.1 °C 10.7 °C 1016.1 hPa Calm   1.6 km/h 91 % 0.3 mm
21:32 12.0 °C 10.6 °C 1016.5 hPa Calm   1.6 km/h 91 % 0.3 mm
21:42 11.9 °C 10.6 °C 1016.1 hPa Calm   3.2 km/h 92 % 0.5 mm
21:47 11.9 °C 10.8 °C 1016.1 hPa Calm   3.2 km/h 93 % 0.5 mm
21:52 11.8 °C 10.7 °C 1016.1 hPa Calm   3.2 km/h 93 % 0.5 mm
21:57 11.8 °C 10.7 °C 1016.1 hPa Calm   3.2 km/h 93 % 0.5 mm
22:02 11.8 °C 10.7 °C 1016.1 hPa Calm   3.2 km/h 93 % 0.5 mm
22:12 11.7 °C 10.6 °C 1016.1 hPa Calm   3.2 km/h 93 % 0.5 mm
22:17 11.6 °C 10.7 °C 1015.8 hPa Calm   1.6 km/h 94 % 0.5 mm
22:22 11.6 °C 10.7 °C 1015.8 hPa Calm   1.6 km/h 94 % 0.5 mm
22:32 11.6 °C 10.7 °C 1015.8 hPa Calm   1.6 km/h 94 % 0.5 mm
22:37 11.6 °C 10.7 °C 1015.8 hPa SE 1.6 km/h 3.2 km/h 94 % 0.5 mm
22:42 11.6 °C 10.7 °C 1015.8 hPa Calm   3.2 km/h 94 % 0.5 mm
22:52 11.5 °C 10.6 °C 1015.8 hPa SSW 3.2 km/h 4.8 km/h 94 % 0.3 mm
22:57 11.5 °C 10.6 °C 1015.8 hPa SSW 1.6 km/h 8.0 km/h 94 % 0.5 mm
23:02 11.4 °C 10.5 °C 1015.8 hPa SSW 3.2 km/h 8.0 km/h 94 % 0.5 mm
23:12 11.4 °C 10.6 °C 1015.8 hPa SSW 3.2 km/h 8.0 km/h 95 % 1.0 mm
23:17 11.4 °C 10.6 °C 1015.8 hPa South 4.8 km/h 6.4 km/h 95 % 1.5 mm
23:22 11.4 °C 10.6 °C 1015.8 hPa SSW 4.8 km/h 6.4 km/h 95 % 1.5 mm
23:32 11.3 °C 10.5 °C 1015.8 hPa SW 3.2 km/h 9.7 km/h 95 % 1.8 mm
23:42 11.3 °C 10.5 °C 1015.8 hPa South 3.2 km/h 9.7 km/h 95 % 2.0 mm
23:47 11.3 °C 10.5 °C 1015.8 hPa SSW 6.4 km/h 8.0 km/h 95 % 2.3 mm
23:52 11.3 °C 10.5 °C 1015.8 hPa SSW 3.2 km/h 8.0 km/h 95 % 2.3 mm
23:57 11.2 °C 10.4 °C 1015.5 hPa SSW 3.2 km/h 9.7 km/h 95 % 2.3 mm
Meteo18
Compliments of Weather Underground - 4 mb

Script developed by  Jim McMurry - jmcmurry@mwt.net Adapted for the template by  Wim van der Kuil - Leuven-Template.eu

You find our weather info also at:

European Weather Network

Weather Underground

Equipment we use:

Weather-station
Davis Vue

Weather-program
Meteohub

Weather-server
Raspberry PI 2 B+

Provider
1 and 1

Davis Vue

Meteohub

Raspberry PI 2 B+

1 and 1